LH962 EGPH-EDDF
Flight info
| Callsign | LH962 |
|---|---|
| Flight time | N/A |
| Altitude | 25000 |
| Route | TLA6D TLA Y96 HAVEN/N0441F390 DCT OTBUN DCT AGPED DCT GODOS DCT AMGOD DCT SOGPO DCT DIXAT DIXAT1A/25L |
| Aircraft | A20N/M-SDE2E3FGHIRWXY/LB1 |
Departure
| Time | N/A |
|---|---|
| Airport | Edinburgh Airport (EGPH) |
Arrival
| Time | 2026-05-06 16:56 |
|---|---|
| Airport | Frankfurt Main Airport (EDDF) |
| Time | Latitude | Longitude | Altitude | Speed | Heading |
|---|---|---|---|---|---|
| 2026-05-06 16:42 | 50.32803 | 9.35870 | 8782 ft | 293 kts | 71° |
| 2026-05-06 16:42 | 50.33266 | 9.37902 | 8782 ft | 293 kts | 72° |
| 2026-05-06 16:43 | 50.33849 | 9.41972 | 8592 ft | 288 kts | 94° |
| 2026-05-06 16:43 | 50.33375 | 9.44954 | 8208 ft | 283 kts | 120° |
| 2026-05-06 16:43 | 50.32607 | 9.46617 | 7923 ft | 279 kts | 138° |
| 2026-05-06 16:43 | 50.31023 | 9.48162 | 7529 ft | 272 kts | 165° |
| 2026-05-06 16:44 | 50.29222 | 9.48353 | 7365 ft | 252 kts | 193° |
| 2026-05-06 16:44 | 50.27724 | 9.47222 | 7226 ft | 234 kts | 223° |
| 2026-05-06 16:44 | 50.26841 | 9.45182 | 7109 ft | 223 kts | 243° |
| 2026-05-06 16:44 | 50.26180 | 9.43000 | 6877 ft | 220 kts | 244° |
| 2026-05-06 16:45 | 50.25322 | 9.40136 | 6785 ft | 222 kts | 244° |
| 2026-05-06 16:45 | 50.24879 | 9.38660 | 6774 ft | 221 kts | 244° |
| 2026-05-06 16:45 | 50.24232 | 9.36499 | 6625 ft | 219 kts | 244° |
| 2026-05-06 16:45 | 50.23583 | 9.34324 | 6251 ft | 224 kts | 244° |
| 2026-05-06 16:46 | 50.22912 | 9.32085 | 5782 ft | 232 kts | 244° |
| 2026-05-06 16:46 | 50.22224 | 9.29791 | 5403 ft | 233 kts | 244° |
| 2026-05-06 16:46 | 50.21536 | 9.27511 | 5148 ft | 231 kts | 244° |
| 2026-05-06 16:46 | 50.20848 | 9.25248 | 4829 ft | 231 kts | 244° |
| 2026-05-06 16:47 | 50.20160 | 9.22992 | 4517 ft | 230 kts | 244° |
| 2026-05-06 16:47 | 50.19468 | 9.20750 | 4201 ft | 230 kts | 244° |
| 2026-05-06 16:47 | 50.18771 | 9.18520 | 4043 ft | 226 kts | 244° |
| 2026-05-06 16:47 | 50.18053 | 9.16407 | 3988 ft | 214 kts | 241° |
| 2026-05-06 16:48 | 50.17331 | 9.14323 | 3993 ft | 221 kts | 242° |
| 2026-05-06 16:48 | 50.16717 | 9.12191 | 3990 ft | 216 kts | 248° |
| 2026-05-06 16:48 | 50.16194 | 9.09980 | 3990 ft | 220 kts | 249° |
| 2026-05-06 16:48 | 50.15672 | 9.07724 | 3991 ft | 222 kts | 249° |
| 2026-05-06 16:49 | 50.15142 | 9.05488 | 3995 ft | 219 kts | 249° |
| 2026-05-06 16:49 | 50.14612 | 9.03250 | 3997 ft | 223 kts | 249° |
| 2026-05-06 16:49 | 50.14069 | 9.00964 | 3996 ft | 222 kts | 249° |
| 2026-05-06 16:49 | 50.13542 | 8.98743 | 3995 ft | 220 kts | 249° |
| 2026-05-06 16:50 | 50.13006 | 8.96487 | 3998 ft | 220 kts | 249° |
| 2026-05-06 16:50 | 50.12477 | 8.94257 | 3994 ft | 215 kts | 249° |
| 2026-05-06 16:50 | 50.11975 | 8.92143 | 3998 ft | 201 kts | 249° |
| 2026-05-06 16:50 | 50.11512 | 8.90195 | 3996 ft | 183 kts | 249° |
| 2026-05-06 16:51 | 50.11084 | 8.88395 | 4005 ft | 180 kts | 249° |
| 2026-05-06 16:51 | 50.10647 | 8.86557 | 3999 ft | 179 kts | 249° |
| 2026-05-06 16:51 | 50.10218 | 8.84749 | 3979 ft | 178 kts | 249° |
| 2026-05-06 16:51 | 50.09785 | 8.82930 | 3731 ft | 180 kts | 250° |
| 2026-05-06 16:52 | 50.09354 | 8.81117 | 3462 ft | 176 kts | 250° |
| 2026-05-06 16:52 | 50.08939 | 8.79372 | 3227 ft | 176 kts | 250° |
| 2026-05-06 16:52 | 50.08508 | 8.77557 | 2983 ft | 177 kts | 249° |
| 2026-05-06 16:52 | 50.08086 | 8.75796 | 2731 ft | 171 kts | 251° |
| 2026-05-06 16:53 | 50.07660 | 8.73996 | 2489 ft | 175 kts | 251° |
| 2026-05-06 16:53 | 50.07247 | 8.72267 | 2262 ft | 168 kts | 251° |
| 2026-05-06 16:53 | 50.06859 | 8.70635 | 2038 ft | 154 kts | 251° |
| 2026-05-06 16:53 | 50.06505 | 8.69150 | 1844 ft | 137 kts | 253° |
| 2026-05-06 16:54 | 50.06197 | 8.67864 | 1678 ft | 118 kts | 253° |
| 2026-05-06 16:54 | 50.05910 | 8.66645 | 1508 ft | 122 kts | 253° |
| 2026-05-06 16:54 | 50.05615 | 8.65406 | 1342 ft | 122 kts | 253° |
| 2026-05-06 16:54 | 50.05324 | 8.64190 | 1170 ft | 119 kts | 254° |
| 2026-05-06 16:55 | 50.05031 | 8.62950 | 1001 ft | 123 kts | 252° |
| 2026-05-06 16:55 | 50.04730 | 8.61696 | 813 ft | 124 kts | 253° |
| 2026-05-06 16:55 | 50.04431 | 8.60433 | 662 ft | 123 kts | 255° |
| 2026-05-06 16:55 | 50.04136 | 8.59211 | 479 ft | 121 kts | 255° |
| 2026-05-06 16:56 | 50.03847 | 8.57982 | 354 ft | 116 kts | 252° |
| 2026-05-06 16:56 | 50.03672 | 8.57246 | 348 ft | 22 kts | 260° |
| 2026-05-06 16:56 | 50.03673 | 8.57217 | 345 ft | 1 kts | 282° |
| 2026-05-06 16:56 | 50.03703 | 8.57133 | 350 ft | 12 kts | 301° |
| 2026-05-06 16:57 | 50.03748 | 8.57018 | 355 ft | 13 kts | 301° |
| 2026-05-06 16:57 | 50.03775 | 8.56945 | 350 ft | 0 kts | 300° |
| 2026-05-06 16:57 | 50.03778 | 8.56939 | 349 ft | 4 kts | 300° |
| 2026-05-06 16:58 | 50.03800 | 8.56882 | 345 ft | 8 kts | 302° |
| 2026-05-06 16:58 | 50.03830 | 8.56806 | 354 ft | 8 kts | 300° |
| 2026-05-06 16:58 | 50.03860 | 8.56728 | 349 ft | 9 kts | 303° |